.
WxDataArchive / Data Records for 2011-11-12
2011-11-11 November 2011 2011-11-13

Data Records for Saturday, 12 November 2011

Time	Temp	Chill	HIndex	Humid	Dewpt	 Wind 	HiWind	WindDir	Rain 	Barom 
-----	----	-----	------	-----	-----	------	------	-------	-----	----- 
00:00	36.0	36.0	36.0	64	25.0	0	0	---	0.00	29.831 
00:05	35.9	35.9	35.9	65	25.3	0	0	---	0.00	29.831 
00:10	35.8	35.8	35.8	65	25.2	0	0	---	0.00	29.831 
00:15	35.5	35.5	35.5	65	24.9	0	0	---	0.00	29.827 
00:20	35.3	35.3	35.3	66	25.1	0	0	---	0.00	29.827 
00:25	35.2	35.2	35.2	66	25.0	0	0	---	0.00	29.827 
00:30	35.0	35.0	35.0	67	25.2	0	0	---	0.00	29.824 
00:35	34.9	34.9	34.9	67	25.1	0	0	---	0.00	29.824 
00:40	34.9	34.9	34.9	68	25.4	0	0	---	0.00	29.824 
00:45	34.7	34.7	34.7	68	25.2	0	0	---	0.00	29.823 
00:50	34.6	34.6	34.6	68	25.1	0	0	---	0.00	29.823 
00:55	34.4	34.4	34.4	68	24.9	0	0	---	0.00	29.823 
01:00	34.3	34.3	34.3	69	25.2	0	0	---	0.00	29.824 
01:05	34.1	34.1	34.1	69	25.0	0	0	---	0.00	29.824 
01:10	34.1	34.1	34.1	69	25.0	0	0	---	0.00	29.824 
01:15	34.0	34.0	34.0	70	25.3	0	0	---	0.00	29.822 
01:20	33.8	33.8	33.8	70	25.1	0	0	---	0.00	29.822 
01:25	33.8	33.8	33.8	71	25.4	0	0	---	0.00	29.822 
01:30	33.8	33.8	33.8	71	25.4	0	0	---	0.00	29.823 
01:35	33.8	33.8	33.8	71	25.4	0	0	---	0.00	29.823 
01:40	33.8	33.8	33.8	71	25.4	0	0	---	0.00	29.823 
01:45	33.8	33.8	33.8	71	25.4	0	0	---	0.00	29.824 
01:50	33.7	33.7	33.7	71	25.3	0	0	---	0.00	29.824 
01:55	33.4	33.4	33.4	72	25.4	0	0	---	0.00	29.824 
02:00	33.2	33.2	33.2	72	25.2	0	0	---	0.00	29.826 
02:05	32.9	32.9	32.9	73	25.2	0	0	---	0.00	29.826 
02:10	32.7	32.7	32.7	74	25.3	0	0	---	0.00	29.826 
02:15	32.4	32.4	32.4	75	25.4	0	0	---	0.00	29.829 
02:20	32.2	32.2	32.2	75	25.2	0	0	---	0.00	29.829 
02:25	32.1	32.1	32.1	76	25.4	0	0	---	0.00	29.829 
02:30	31.8	31.8	31.8	76	25.1	0	0	---	0.00	29.829 
02:35	31.6	31.6	31.6	77	25.2	0	0	---	0.00	29.829 
02:40	31.3	31.3	31.3	77	24.9	0	0	---	0.00	29.829 
02:45	31.2	31.2	31.2	78	25.2	0	0	---	0.00	29.829 
02:50	31.0	31.0	31.0	78	25.0	0	0	---	0.00	29.829 
02:55	30.9	30.9	30.9	78	24.9	0	0	---	0.00	29.829 
03:00	30.7	30.7	30.7	79	25.0	0	0	---	0.00	29.832 
03:05	30.7	30.7	30.7	80	25.3	0	0	---	0.00	29.832 
03:10	30.6	30.6	30.6	80	25.2	0	0	---	0.00	29.832 
03:15	30.7	30.7	30.7	81	25.6	0	0	---	0.00	29.837 
03:20	31.2	31.2	31.2	83	26.6	0	2	68	0.00	29.837 
03:25	31.9	31.9	31.9	84	27.6	0	2	68	0.00	29.837 
03:30	32.7	32.7	32.7	84	28.4	0	1	68	0.00	29.832 
03:35	33.5	33.5	33.5	84	29.2	0	3	68	0.00	29.832 
03:40	34.9	34.9	34.9	83	30.3	0	2	248	0.00	29.832 
03:45	36.0	36.0	36.0	81	30.7	0	3	248	0.00	29.831 
03:50	36.8	36.8	36.8	79	30.9	1	3	248	0.00	29.831 
03:55	37.5	37.5	37.5	77	31.0	0	3	248	0.00	29.831 
04:00	38.2	38.2	38.2	76	31.3	1	4	248	0.00	29.831 
04:05	38.9	38.9	38.9	74	31.3	1	3	248	0.00	29.831 
04:10	39.2	39.2	39.2	73	31.3	1	5	248	0.00	29.831 
04:15	39.6	39.6	39.6	73	31.7	1	4	248	0.00	29.834 
04:20	39.9	39.9	39.9	72	31.6	1	4	248	0.00	29.834 
04:25	40.1	40.1	40.1	72	31.8	1	3	248	0.00	29.834 
04:30	40.2	40.2	40.2	72	31.9	1	5	248	0.00	29.833 
04:35	40.5	40.5	40.5	72	32.2	2	7	248	0.00	29.833 
04:40	40.6	40.6	40.6	71	31.9	1	4	248	0.00	29.833 
04:45	40.6	40.6	40.6	71	31.9	0	2	248	0.00	29.833 
04:50	40.6	40.6	40.6	71	31.9	1	4	248	0.00	29.833 
04:55	40.5	40.5	40.5	72	32.2	1	4	248	0.00	29.833 
05:00	40.5	40.5	40.5	72	32.2	1	3	248	0.00	29.835 
05:05	40.5	40.5	40.5	73	32.5	1	5	248	0.00	29.835 
05:10	40.6	40.6	40.6	73	32.6	1	4	248	0.00	29.835 
05:15	40.6	40.6	40.6	73	32.6	1	3	248	0.00	29.846 
05:20	40.8	40.8	40.8	73	32.8	0	2	248	0.00	29.846 
05:25	40.8	40.8	40.8	73	32.8	1	5	248	0.00	29.846 
05:30	40.8	40.8	40.8	73	32.8	1	4	248	0.00	29.850 
05:35	40.9	40.9	40.9	73	32.9	1	5	248	0.00	29.850 
05:40	40.9	40.9	40.9	73	32.9	1	6	248	0.00	29.850 
05:45	40.9	40.9	40.9	73	32.9	0	5	248	0.00	29.849 
05:50	40.9	40.9	40.9	73	32.9	2	6	248	0.00	29.849 
05:55	40.9	40.9	40.9	73	32.9	1	6	248	0.00	29.849 
06:00	40.9	40.9	40.9	73	32.9	1	6	248	0.00	29.849 
06:05	41.2	41.2	41.2	73	33.2	3	9	248	0.00	29.849 
06:10	41.3	41.3	41.3	73	33.3	1	5	248	0.00	29.849 
06:15	41.5	41.5	41.5	73	33.5	1	4	270	0.00	29.853 
06:20	41.5	41.5	41.5	73	33.5	2	6	248	0.00	29.853 
06:25	41.6	41.6	41.6	73	33.6	1	5	248	0.00	29.853 
06:30	41.6	41.6	41.6	73	33.6	1	4	248	0.00	29.864 
06:35	41.6	41.6	41.6	72	33.3	1	4	248	0.00	29.864 
06:40	41.8	41.8	41.8	72	33.4	1	5	248	0.00	29.864 
06:45	41.8	41.8	41.8	72	33.4	1	5	248	0.00	29.863 
06:50	41.8	41.8	41.8	72	33.4	1	6	248	0.00	29.863 
06:55	41.8	41.8	41.8	72	33.4	1	5	248	0.00	29.863 
07:00	41.8	41.8	41.8	72	33.4	1	4	248	0.00	29.869 
07:05	41.8	41.8	41.8	72	33.4	1	6	248	0.00	29.869 
07:10	41.9	41.9	41.9	72	33.5	1	4	248	0.00	29.869 
07:15	41.9	41.9	41.9	72	33.5	1	6	248	0.00	29.871 
07:20	41.9	41.9	41.9	72	33.5	1	5	248	0.00	29.871 
07:25	41.9	41.9	41.9	72	33.5	1	4	248	0.00	29.871 
07:30	41.9	41.9	41.9	72	33.5	2	4	248	0.00	29.878 
07:35	41.8	41.8	41.8	72	33.4	0	3	248	0.00	29.878 
07:40	41.8	41.8	41.8	72	33.4	1	4	248	0.00	29.878 
07:45	41.6	41.6	41.6	72	33.3	0	3	248	0.00	29.883 
07:50	41.6	41.6	41.6	72	33.3	1	5	248	0.00	29.883 
07:55	41.8	41.8	41.8	72	33.4	1	4	248	0.00	29.883 
08:00	41.9	41.9	41.9	71	33.2	1	4	248	0.00	29.883 
08:05	42.2	42.2	42.2	71	33.5	1	4	248	0.00	29.883 
08:10	42.5	42.5	42.5	70	33.4	1	4	248	0.00	29.883 
08:15	42.8	42.8	42.8	69	33.3	2	6	248	0.00	29.891 
08:20	43.1	43.1	43.1	69	33.6	2	6	225	0.00	29.891 
08:25	43.3	43.3	43.3	68	33.5	1	6	270	0.00	29.891 
08:30	43.8	43.8	43.8	67	33.6	1	5	248	0.00	29.900 
08:35	43.9	43.9	43.9	66	33.3	1	5	248	0.00	29.900 
08:40	44.1	44.1	44.1	66	33.5	2	6	248	0.00	29.900 
08:45	44.3	44.3	44.3	66	33.7	2	5	248	0.00	29.910 
08:50	44.5	44.5	44.5	65	33.5	2	6	248	0.00	29.910 
08:55	44.8	44.8	44.8	65	33.8	2	9	248	0.00	29.910 
09:00	45.1	45.1	45.1	64	33.7	2	5	248	0.00	29.906 
09:05	45.5	45.5	45.5	64	34.0	2	5	248	0.00	29.906 
09:10	45.8	45.8	45.8	63	33.9	1	7	248	0.00	29.906 
09:15	46.4	46.4	46.4	61	33.7	3	7	248	0.00	29.908 
09:20	46.8	46.8	46.8	60	33.7	3	6	248	0.00	29.908 
09:25	47.3	47.3	47.3	59	33.7	2	9	248	0.00	29.908 
09:30	47.6	47.6	47.6	59	34.0	3	9	248	0.00	29.906 
09:35	47.9	47.9	47.9	58	33.8	3	11	248	0.00	29.906 
09:40	48.2	48.2	48.2	58	34.1	2	5	248	0.00	29.906 
09:45	48.5	48.5	48.5	58	34.4	2	10	225	0.00	29.906 
09:50	48.8	48.8	48.8	56	33.8	3	7	248	0.00	29.906 
09:55	49.1	49.1	49.1	56	34.1	2	5	248	0.00	29.906 
10:00	49.4	49.4	49.4	55	33.9	3	13	248	0.00	29.911 
10:05	49.6	49.6	49.6	55	34.1	3	10	248	0.00	29.911 
10:10	50.1	50.1	50.1	54	34.1	2	5	248	0.00	29.911 
10:15	50.4	50.4	50.4	54	34.4	2	5	248	0.00	29.920 
10:20	50.8	50.8	50.8	54	34.8	3	7	248	0.00	29.920 
10:25	51.0	51.0	51.0	52	34.0	4	9	248	0.00	29.920 
10:30	51.3	51.3	51.3	51	33.8	3	10	248	0.00	29.920 
10:35	51.6	51.6	51.6	51	34.1	3	10	248	0.00	29.920 
10:40	51.9	51.9	51.9	50	33.9	3	7	248	0.00	29.920 
10:45	52.2	52.2	52.2	51	34.6	2	6	248	0.00	29.920 
10:50	52.5	52.5	52.5	50	34.4	2	8	248	0.00	29.920 
10:55	52.8	52.8	52.8	50	34.7	3	8	248	0.00	29.920 
11:00	52.9	52.9	52.9	50	34.8	3	9	248	0.00	29.918 
11:05	53.1	53.1	53.1	49	34.4	3	7	248	0.00	29.918 
11:10	53.2	53.2	53.2	49	34.5	4	7	248	0.00	29.918 
11:15	53.3	53.3	53.3	49	34.6	3	9	248	0.00	29.919 
11:20	53.6	53.6	53.6	50	35.4	3	7	248	0.00	29.919 
11:25	53.8	53.8	53.8	48	34.6	4	11	248	0.00	29.919 
11:30	53.9	53.9	53.9	48	34.7	4	10	248	0.00	29.915 
11:35	54.1	54.1	54.1	48	34.8	2	9	248	0.00	29.915 
11:40	54.5	54.5	54.5	49	35.7	2	6	248	0.00	29.915 
11:45	54.8	54.8	54.8	48	35.5	2	7	225	0.00	29.907 
11:50	55.1	55.1	55.1	48	35.8	2	6	248	0.00	29.907 
11:55	55.3	55.3	55.3	48	35.9	3	9	248	0.00	29.907 
12:00	55.6	55.6	55.6	48	36.2	2	7	248	0.00	29.903 
12:05	55.7	55.7	55.7	47	35.8	3	9	248	0.00	29.903 
12:10	55.9	55.9	55.9	46	35.4	4	7	248	0.00	29.903 
12:15	56.0	56.0	56.0	46	35.5	2	6	248	0.00	29.903 
12:20	56.3	56.3	56.3	46	35.8	2	7	248	0.00	29.903 
12:25	56.7	56.7	56.7	46	36.2	3	9	248	0.00	29.903 
12:30	56.7	56.7	56.7	46	36.2	2	9	270	0.00	29.901 
12:35	56.9	56.9	56.9	46	36.3	2	9	248	0.00	29.901 
12:40	57.0	57.0	57.0	46	36.4	3	7	248	0.00	29.901 
12:45	57.0	57.0	57.0	45	35.9	3	7	248	0.00	29.896 
12:50	57.2	57.2	57.2	46	36.6	2	5	248	0.00	29.896 
12:55	57.3	57.3	57.3	45	36.1	3	14	248	0.00	29.896 
13:00	57.3	57.3	57.3	45	36.1	4	10	248	0.00	29.896 
13:05	57.3	57.3	57.3	45	36.1	4	10	248	0.00	29.896 
13:10	57.3	57.3	57.3	45	36.1	3	5	248	0.00	29.896 
13:15	57.3	57.3	57.3	46	36.7	3	6	248	0.00	29.897 
13:20	57.5	57.5	57.5	46	36.9	2	6	248	0.00	29.897 
13:25	57.8	57.8	57.8	47	37.7	1	4	248	0.00	29.897 
13:30	58.3	58.3	58.3	45	37.1	3	6	248	0.00	29.894 
13:35	58.6	58.6	58.6	45	37.3	3	10	248	0.00	29.894 
13:40	58.7	58.7	58.7	44	36.8	3	9	270	0.00	29.894 
13:45	58.9	58.9	58.9	44	37.0	2	7	248	0.00	29.889 
13:50	58.9	58.9	58.9	44	37.0	2	5	270	0.00	29.889 
13:55	59.0	59.0	59.0	43	36.5	3	7	248	0.00	29.889 
14:00	59.2	59.2	59.2	45	37.9	2	4	248	0.00	29.887 
14:05	59.3	59.3	59.3	42	36.2	4	10	248	0.00	29.887 
14:10	59.3	59.3	59.3	43	36.8	3	7	248	0.00	29.887 
14:15	59.5	59.5	59.5	44	37.6	1	5	248	0.00	29.887 
14:20	59.6	59.6	59.6	43	37.1	3	7	270	0.00	29.887 
14:25	59.9	59.9	59.9	43	37.3	3	7	248	0.00	29.887 
14:30	60.1	60.1	60.1	43	37.5	2	6	270	0.00	29.876 
14:35	60.2	60.2	60.2	42	37.0	2	5	248	0.00	29.876 
14:40	60.1	60.1	60.1	41	36.3	3	10	248	0.00	29.876 
14:45	60.1	60.1	60.1	41	36.3	3	7	248	0.00	29.874 
14:50	60.1	60.1	60.1	40	35.7	2	7	248	0.00	29.874 
14:55	60.2	60.2	60.2	41	36.4	1	4	248	0.00	29.874 
15:00	60.2	60.2	60.2	39	35.2	3	7	248	0.00	29.874 
15:05	60.4	60.4	60.4	40	36.0	2	5	248	0.00	29.874 
15:10	60.5	60.5	60.5	39	35.4	2	8	248	0.00	29.874 
15:15	60.7	60.7	60.7	40	36.2	2	4	248	0.00	29.870 
15:20	60.5	60.5	60.5	41	36.7	2	7	248	0.00	29.870 
15:25	60.2	60.2	60.2	40	35.8	2	7	248	0.00	29.870 
15:30	59.9	59.9	59.9	39	34.9	3	11	248	0.00	29.867 
15:35	59.6	59.6	59.6	39	34.6	3	7	270	0.00	29.867 
15:40	59.5	59.5	59.5	39	34.5	3	7	248	0.00	29.867 
15:45	59.5	59.5	59.5	39	34.5	2	6	270	0.00	29.866 
15:50	59.3	59.3	59.3	41	35.6	1	3	225	0.00	29.866 
15:55	59.0	59.0	59.0	41	35.3	2	5	292	0.00	29.866 
16:00	59.0	59.0	59.0	42	35.9	1	6	248	0.00	29.867 
16:05	58.9	58.9	58.9	42	35.9	2	7	248	0.00	29.867 
16:10	58.9	58.9	58.9	40	34.6	2	7	248	0.00	29.867 
16:15	58.9	58.9	58.9	41	35.2	1	4	248	0.00	29.863 
16:20	58.9	58.9	58.9	41	35.2	1	4	248	0.00	29.863 
16:25	58.9	58.9	58.9	42	35.9	1	3	248	0.00	29.863 
16:30	58.7	58.7	58.7	40	34.4	2	7	248	0.00	29.864 
16:35	58.7	58.7	58.7	40	34.4	2	6	248	0.00	29.864 
16:40	58.7	58.7	58.7	37	32.5	3	7	248	0.00	29.864 
16:45	58.7	58.7	58.7	37	32.5	2	9	248	0.00	29.861 
16:50	58.6	58.6	58.6	37	32.4	2	6	248	0.00	29.861 
16:55	58.4	58.4	58.4	39	33.5	2	6	248	0.00	29.861 
17:00	58.1	58.1	58.1	42	35.1	2	6	270	0.00	29.860 
17:05	57.6	57.6	57.6	42	34.7	2	6	248	0.00	29.860 
17:10	57.3	57.3	57.3	43	35.0	1	5	248	0.00	29.860 
17:15	56.9	56.9	56.9	44	35.2	1	3	270	0.00	29.859 
17:20	56.6	56.6	56.6	45	35.5	1	5	248	0.00	29.859 
17:25	56.2	56.2	56.2	45	35.1	1	5	292	0.00	29.859 
17:30	56.0	56.0	56.0	46	35.5	1	4	315	0.00	29.855 
17:35	55.7	55.7	55.7	46	35.2	0	3	68	0.00	29.855 
17:40	55.6	55.6	55.6	46	35.2	1	4	68	0.00	29.855 
17:45	55.3	55.3	55.3	47	35.4	1	4	90	0.00	29.854 
17:50	55.3	55.3	55.3	46	34.9	1	6	225	0.00	29.854 
17:55	55.3	55.3	55.3	46	34.9	1	3	248	0.00	29.854 
18:00	55.1	55.1	55.1	46	34.7	1	4	338	0.00	29.852 
18:05	55.0	55.0	55.0	46	34.6	1	3	0	0.00	29.852 
18:10	54.8	54.8	54.8	46	34.4	1	5	270	0.00	29.852 
18:15	54.8	54.8	54.8	46	34.4	1	4	225	0.00	29.854 
18:20	54.8	54.8	54.8	46	34.4	1	4	248	0.00	29.854 
18:25	54.8	54.8	54.8	46	34.4	1	4	292	0.00	29.854 
18:30	54.8	54.8	54.8	45	33.9	2	7	270	0.00	29.853 
18:35	55.0	55.0	55.0	46	34.6	2	8	292	0.00	29.853 
18:40	54.8	54.8	54.8	46	34.4	1	5	90	0.00	29.853 
18:45	54.7	54.7	54.7	46	34.3	1	4	90	0.00	29.852 
18:50	54.5	54.5	54.5	46	34.1	1	4	292	0.00	29.852 
18:55	54.4	54.4	54.4	47	34.6	1	4	270	0.00	29.852 
19:00	54.2	54.2	54.2	47	34.4	1	6	68	0.00	29.849 
19:05	54.1	54.1	54.1	47	34.3	1	3	68	0.00	29.849 
19:10	54.1	54.1	54.1	47	34.3	1	5	90	0.00	29.849 
19:15	54.1	54.1	54.1	47	34.3	1	3	202	0.00	29.846 
19:20	53.9	53.9	53.9	47	34.1	1	5	90	0.00	29.846 
19:25	53.9	53.9	53.9	47	34.1	1	5	90	0.00	29.846 
19:30	53.9	53.9	53.9	48	34.7	1	4	270	0.00	29.846 
19:35	53.9	53.9	53.9	47	34.1	1	5	90	0.00	29.846 
19:40	53.9	53.9	53.9	47	34.1	1	6	248	0.00	29.846 
19:45	53.8	53.8	53.8	47	34.0	1	3	270	0.00	29.840 
19:50	53.8	53.8	53.8	46	33.5	2	6	90	0.00	29.840 
19:55	53.6	53.6	53.6	46	33.3	1	3	22	0.00	29.840 
20:00	53.6	53.6	53.6	46	33.3	1	3	292	0.00	29.837 
20:05	53.6	53.6	53.6	46	33.3	1	5	315	0.00	29.837 
20:10	53.5	53.5	53.5	46	33.2	0	4	248	0.00	29.837 
20:15	53.5	53.5	53.5	46	33.2	1	4	90	0.00	29.830 
20:20	53.3	53.3	53.3	46	33.1	1	5	270	0.00	29.830 
20:25	53.3	53.3	53.3	46	33.1	1	5	90	0.00	29.830 
20:30	53.3	53.3	53.3	46	33.1	1	4	112	0.00	29.821 
20:35	53.2	53.2	53.2	46	33.0	1	3	90	0.00	29.821 
20:40	53.2	53.2	53.2	47	33.5	1	4	315	0.00	29.821 
20:45	53.2	53.2	53.2	46	33.0	2	5	68	0.00	29.816 
20:50	53.3	53.3	53.3	46	33.1	1	6	68	0.00	29.816 
20:55	53.3	53.3	53.3	46	33.1	2	5	90	0.00	29.816 
21:00	53.2	53.2	53.2	46	33.0	2	10	90	0.00	29.808 
21:05	53.3	53.3	53.3	46	33.1	2	4	90	0.00	29.808 
21:10	53.3	53.3	53.3	46	33.1	1	4	292	0.00	29.808 
21:15	53.3	53.3	53.3	46	33.1	1	4	270	0.00	29.806 
21:20	53.3	53.3	53.3	46	33.1	1	7	248	0.00	29.806 
21:25	53.5	53.5	53.5	46	33.2	2	4	248	0.00	29.806 
21:30	53.5	53.5	53.5	46	33.2	1	5	292	0.00	29.805 
21:35	53.5	53.5	53.5	46	33.2	2	6	248	0.00	29.805 
21:40	53.3	53.3	53.3	46	33.1	2	9	270	0.00	29.805 
21:45	53.5	53.5	53.5	46	33.2	1	7	270	0.00	29.801 
21:50	53.5	53.5	53.5	46	33.2	1	4	248	0.00	29.801 
21:55	53.3	53.3	53.3	46	33.1	1	6	112	0.00	29.801 
22:00	53.3	53.3	53.3	47	33.6	1	6	270	0.00	29.799 
22:05	53.3	53.3	53.3	47	33.6	2	5	248	0.00	29.799 
22:10	53.3	53.3	53.3	47	33.6	2	7	248	0.00	29.799 
22:15	53.5	53.5	53.5	47	33.8	2	5	248	0.00	29.795 
22:20	53.5	53.5	53.5	47	33.8	2	9	248	0.00	29.795 
22:25	53.6	53.6	53.6	48	34.4	1	6	270	0.00	29.795 
22:30	53.6	53.6	53.6	47	33.9	2	6	248	0.00	29.789 
22:35	53.6	53.6	53.6	48	34.4	2	5	270	0.00	29.789 
22:40	53.8	53.8	53.8	47	34.0	2	9	248	0.00	29.789 
22:45	53.9	53.9	53.9	47	34.1	3	9	248	0.00	29.790 
22:50	54.1	54.1	54.1	47	34.3	3	7	248	0.00	29.790 
22:55	54.1	54.1	54.1	47	34.3	3	7	248	0.00	29.790 
23:00	54.2	54.2	54.2	47	34.4	2	6	248	0.00	29.793 
23:05	54.2	54.2	54.2	47	34.4	2	5	248	0.00	29.793 
23:10	54.2	54.2	54.2	47	34.4	2	6	270	0.00	29.793 
23:15	54.2	54.2	54.2	47	34.4	2	7	248	0.00	29.785 
23:20	54.4	54.4	54.4	47	34.6	3	10	270	0.00	29.785 
23:25	54.4	54.4	54.4	48	35.1	2	5	248	0.00	29.785 
23:30	54.4	54.4	54.4	48	35.1	2	7	292	0.00	29.782 
23:35	54.4	54.4	54.4	48	35.1	2	6	270	0.00	29.782 
23:40	54.5	54.5	54.5	48	35.2	3	7	248	0.00	29.782 
23:45	54.5	54.5	54.5	48	35.2	2	6	248	0.00	29.781 
23:50	54.5	54.5	54.5	49	35.7	2	9	248	0.00	29.781 
23:55	54.5	54.5	54.5	49	35.7	3	12	248	0.00	29.781 

CoCoRaHS
IN-AL-39
A2 Web Hosting
Creative Commons License
GoDaddy
search engine by freefind advanced

loaded 2018-11-15 03:10:26 • last modified 2010-11-18 10:43:29
Privacy PolicyDisclaimer
• wx.awcolley.com is powered by PmWiki v.2002016 •
• all content (unless otherwise noted) © 2018 A W Colley